sensor_id;sensor_type;location;lat;lon;timestamp;pressure;altitude;pressure_sealevel;temperature;humidity
31299;BME280;17927;52.350;13.402;2023-07-13T00:02:02;100873.75;;;22.95;40.51
31299;BME280;17927;52.350;13.402;2023-07-13T00:04:28;100868.66;;;22.92;40.54
31299;BME280;17927;52.350;13.402;2023-07-13T00:06:53;100867.84;;;22.85;40.90
31299;BME280;17927;52.350;13.402;2023-07-13T00:09:20;100873.81;;;22.81;41.04
31299;BME280;17927;52.350;13.402;2023-07-13T00:11:51;100871.72;;;22.77;41.01
31299;BME280;17927;52.350;13.402;2023-07-13T00:14:16;100869.88;;;22.71;41.26
31299;BME280;17927;52.350;13.402;2023-07-13T00:16:41;100881.53;;;22.66;40.93
31299;BME280;17927;52.350;13.402;2023-07-13T00:19:09;100871.81;;;22.63;41.22
31299;BME280;17927;52.350;13.402;2023-07-13T00:21:34;100888.75;;;22.60;41.11
31299;BME280;17927;52.350;13.402;2023-07-13T00:24:00;100891.13;;;22.57;41.70
31299;BME280;17927;52.350;13.402;2023-07-13T00:26:26;100893.47;;;22.53;41.63
31299;BME280;17927;52.350;13.402;2023-07-13T00:28:51;100894.13;;;22.48;41.67
31299;BME280;17927;52.350;13.402;2023-07-13T00:31:17;100892.63;;;22.46;41.65
31299;BME280;17927;52.350;13.402;2023-07-13T00:33:42;100881.25;;;22.42;41.76
31299;BME280;17927;52.350;13.402;2023-07-13T00:36:09;100882.94;;;22.43;41.91
31299;BME280;17927;52.350;13.402;2023-07-13T00:38:35;100878.88;;;22.39;42.35
31299;BME280;17927;52.350;13.402;2023-07-13T00:41:00;100875.72;;;22.35;42.55
31299;BME280;17927;52.350;13.402;2023-07-13T00:43:28;100879.53;;;22.34;42.27
31299;BME280;17927;52.350;13.402;2023-07-13T00:48:27;100883.38;;;22.27;42.70
31299;BME280;17927;52.350;13.402;2023-07-13T00:50:56;100883.00;;;22.23;42.85
31299;BME280;17927;52.350;13.402;2023-07-13T00:53:25;100879.38;;;22.23;42.90
31299;BME280;17927;52.350;13.402;2023-07-13T00:55:51;100884.25;;;22.20;42.87
31299;BME280;17927;52.350;13.402;2023-07-13T00:58:18;100886.59;;;22.17;42.92
31299;BME280;17927;52.350;13.402;2023-07-13T01:00:46;100895.28;;;22.14;42.86
31299;BME280;17927;52.350;13.402;2023-07-13T01:03:13;100910.31;;;22.11;43.09
31299;BME280;17927;52.350;13.402;2023-07-13T01:05:38;100910.75;;;22.08;42.92
31299;BME280;17927;52.350;13.402;2023-07-13T01:08:04;100910.09;;;22.06;43.13
31299;BME280;17927;52.350;13.402;2023-07-13T01:10:31;100905.91;;;22.03;43.60
31299;BME280;17927;52.350;13.402;2023-07-13T01:13:03;100901.69;;;22.01;43.51
31299;BME280;17927;52.350;13.402;2023-07-13T01:15:48;100890.88;;;21.99;43.60
31299;BME280;17927;52.350;13.402;2023-07-13T01:18:20;100889.41;;;21.97;43.96
31299;BME280;17927;52.350;13.402;2023-07-13T01:23:19;100898.72;;;21.96;43.54
31299;BME280;17927;52.350;13.402;2023-07-13T01:25:44;100901.69;;;21.94;43.71
31299;BME280;17927;52.350;13.402;2023-07-13T01:28:09;100897.03;;;21.95;43.70
31299;BME280;17927;52.350;13.402;2023-07-13T01:30:36;100900.41;;;21.97;44.10
31299;BME280;17927;52.350;13.402;2023-07-13T01:33:03;100894.91;;;21.97;44.28
31299;BME280;17927;52.350;13.402;2023-07-13T01:35:29;100896.38;;;21.99;43.93
31299;BME280;17927;52.350;13.402;2023-07-13T01:37:54;100896.59;;;21.98;43.99
31299;BME280;17927;52.350;13.402;2023-07-13T01:40:20;100904.63;;;21.99;44.42
31299;BME280;17927;52.350;13.402;2023-07-13T01:42:46;100900.41;;;21.97;44.27
31299;BME280;17927;52.350;13.402;2023-07-13T01:45:11;100902.53;;;21.95;44.54
31299;BME280;17927;52.350;13.402;2023-07-13T01:47:36;100898.31;;;21.92;44.76
31299;BME280;17927;52.350;13.402;2023-07-13T01:50:02;100899.16;;;21.93;44.36
31299;BME280;17927;52.350;13.402;2023-07-13T01:52:27;100894.94;;;21.90;44.45
31299;BME280;17927;52.350;13.402;2023-07-13T01:54:52;100902.78;;;21.86;44.77
31299;BME280;17927;52.350;13.402;2023-07-13T01:57:18;100900.44;;;21.83;44.87
31299;BME280;17927;52.350;13.402;2023-07-13T01:59:43;100898.34;;;21.79;44.42
31299;BME280;17927;52.350;13.402;2023-07-13T02:02:08;100896.03;;;21.75;45.09
31299;BME280;17927;52.350;13.402;2023-07-13T02:04:35;100901.09;;;21.72;44.94
31299;BME280;17927;52.350;13.402;2023-07-13T02:07:00;100893.47;;;21.67;44.68
31299;BME280;17927;52.350;13.402;2023-07-13T02:09:25;100899.84;;;21.61;45.07
31299;BME280;17927;52.350;13.402;2023-07-13T02:11:50;100882.28;;;21.55;44.80
31299;BME280;17927;52.350;13.402;2023-07-13T02:14:16;100871.28;;;21.55;44.84
31299;BME280;17927;52.350;13.402;2023-07-13T02:16:42;100869.38;;;21.56;44.92
31299;BME280;17927;52.350;13.402;2023-07-13T02:19:07;100861.34;;;21.54;44.97
31299;BME280;17927;52.350;13.402;2023-07-13T02:21:33;100870.84;;;21.52;44.95
31299;BME280;17927;52.350;13.402;2023-07-13T02:23:58;100863.25;;;21.47;45.21
31299;BME280;17927;52.350;13.402;2023-07-13T02:26:24;100881.00;;;21.44;45.13
31299;BME280;17927;52.350;13.402;2023-07-13T02:28:50;100876.16;;;21.40;44.94
31299;BME280;17927;52.350;13.402;2023-07-13T02:31:16;100882.50;;;21.34;45.42
31299;BME280;17927;52.350;13.402;2023-07-13T02:33:41;100883.13;;;21.29;45.13
31299;BME280;17927;52.350;13.402;2023-07-13T02:36:07;100877.22;;;21.25;45.00
31299;BME280;17927;52.350;13.402;2023-07-13T02:38:33;100880.38;;;21.22;45.15
31299;BME280;17927;52.350;13.402;2023-07-13T02:41:00;100883.31;;;21.21;45.28
31299;BME280;17927;52.350;13.402;2023-07-13T02:43:26;100890.31;;;21.17;45.55
31299;BME280;17927;52.350;13.402;2023-07-13T02:45:51;100892.41;;;21.14;45.30
31299;BME280;17927;52.350;13.402;2023-07-13T02:48:17;100906.56;;;21.11;45.72
31299;BME280;17927;52.350;13.402;2023-07-13T02:50:44;100905.09;;;21.09;45.91
31299;BME280;17927;52.350;13.402;2023-07-13T02:53:09;100902.94;;;21.04;45.64
31299;BME280;17927;52.350;13.402;2023-07-13T02:55:34;100908.66;;;21.03;45.37
31299;BME280;17927;52.350;13.402;2023-07-13T02:57:59;100910.13;;;20.98;45.77
31299;BME280;17927;52.350;13.402;2023-07-13T03:00:25;100918.16;;;20.93;45.80
31299;BME280;17927;52.350;13.402;2023-07-13T03:02:50;100927.00;;;20.89;45.90
31299;BME280;17927;52.350;13.402;2023-07-13T03:05:17;100918.34;;;20.85;45.81
31299;BME280;17927;52.350;13.402;2023-07-13T03:07:42;100917.69;;;20.83;45.73
31299;BME280;17927;52.350;13.402;2023-07-13T03:10:09;100915.16;;;20.81;46.06
31299;BME280;17927;52.350;13.402;2023-07-13T03:12:34;100906.50;;;20.78;46.18
31299;BME280;17927;52.350;13.402;2023-07-13T03:15:00;100918.91;;;20.74;46.19
31299;BME280;17927;52.350;13.402;2023-07-13T03:17:25;100917.00;;;20.67;46.10
31299;BME280;17927;52.350;13.402;2023-07-13T03:19:50;100911.69;;;20.59;46.37
31299;BME280;17927;52.350;13.402;2023-07-13T03:22:17;100916.72;;;20.56;46.72
31299;BME280;17927;52.350;13.402;2023-07-13T03:24:43;100921.38;;;20.55;46.64
31299;BME280;17927;52.350;13.402;2023-07-13T03:27:08;100919.03;;;20.52;47.13
31299;BME280;17927;52.350;13.402;2023-07-13T03:29:34;100918.00;;;20.53;47.04
31299;BME280;17927;52.350;13.402;2023-07-13T03:31:59;100915.91;;;20.55;47.25
31299;BME280;17927;52.350;13.402;2023-07-13T03:34:24;100916.53;;;20.57;47.43
31299;BME280;17927;52.350;13.402;2023-07-13T03:36:50;100922.66;;;20.59;47.14
31299;BME280;17927;52.350;13.402;2023-07-13T03:39:15;100917.84;;;20.61;47.38
31299;BME280;17927;52.350;13.402;2023-07-13T03:41:40;100917.41;;;20.64;47.56
31299;BME280;17927;52.350;13.402;2023-07-13T03:44:06;100922.47;;;20.67;47.53
31299;BME280;17927;52.350;13.402;2023-07-13T03:46:32;100929.91;;;20.74;47.53
31299;BME280;17927;52.350;13.402;2023-07-13T03:48:58;100926.78;;;20.77;48.00
31299;BME280;17927;52.350;13.402;2023-07-13T03:51:23;100925.28;;;20.81;47.79
31299;BME280;17927;52.350;13.402;2023-07-13T03:53:49;100932.72;;;20.87;47.68
31299;BME280;17927;52.350;13.402;2023-07-13T03:56:16;100926.81;;;20.90;47.76
31299;BME280;17927;52.350;13.402;2023-07-13T03:58:43;100931.66;;;20.95;47.76
31299;BME280;17927;52.350;13.402;2023-07-13T04:01:10;100932.09;;;20.98;47.92
31299;BME280;17927;52.350;13.402;2023-07-13T04:03:36;100942.66;;;21.02;47.71
31299;BME280;17927;52.350;13.402;2023-07-13T04:06:06;100947.75;;;21.05;48.15
31299;BME280;17927;52.350;13.402;2023-07-13T04:08:34;100949.84;;;21.03;47.78
31299;BME280;17927;52.350;13.402;2023-07-13T04:11:03;100950.28;;;21.06;47.84
31299;BME280;17927;52.350;13.402;2023-07-13T04:13:29;100948.16;;;21.08;48.08
31299;BME280;17927;52.350;13.402;2023-07-13T04:15:54;100954.09;;;21.12;48.15
31299;BME280;17927;52.350;13.402;2023-07-13T04:18:20;100960.66;;;21.18;47.99
31299;BME280;17927;52.350;13.402;2023-07-13T04:20:46;100960.47;;;21.26;48.14
31299;BME280;17927;52.350;13.402;2023-07-13T04:23:12;100964.28;;;21.32;48.43
31299;BME280;17927;52.350;13.402;2023-07-13T04:25:37;100956.25;;;21.37;48.41
31299;BME280;17927;52.350;13.402;2023-07-13T04:28:03;100955.38;;;21.43;48.12
31299;BME280;17927;52.350;13.402;2023-07-13T04:30:28;100954.56;;;21.49;48.51
31299;BME280;17927;52.350;13.402;2023-07-13T04:32:54;100961.97;;;21.55;48.12
31299;BME280;17927;52.350;13.402;2023-07-13T04:35:20;100965.59;;;21.63;48.41
31299;BME280;17927;52.350;13.402;2023-07-13T04:37:46;100970.25;;;21.69;48.51
31299;BME280;17927;52.350;13.402;2023-07-13T04:40:12;100974.88;;;21.75;48.28
31299;BME280;17927;52.350;13.402;2023-07-13T04:42:38;100973.19;;;21.81;48.34
31299;BME280;17927;52.350;13.402;2023-07-13T04:45:05;100966.84;;;21.87;48.62
31299;BME280;17927;52.350;13.402;2023-07-13T04:47:31;100971.50;;;21.93;48.88
31299;BME280;17927;52.350;13.402;2023-07-13T04:49:56;100974.44;;;21.98;48.83
31299;BME280;17927;52.350;13.402;2023-07-13T04:52:22;100982.06;;;22.03;48.73
31299;BME280;17927;52.350;13.402;2023-07-13T04:54:48;100985.00;;;22.08;48.85
31299;BME280;17927;52.350;13.402;2023-07-13T04:57:13;100988.16;;;22.12;48.86
31299;BME280;17927;52.350;13.402;2023-07-13T04:59:38;100982.88;;;22.17;48.54
31299;BME280;17927;52.350;13.402;2023-07-13T05:02:04;100984.56;;;22.25;48.81
31299;BME280;17927;52.350;13.402;2023-07-13T05:04:29;100978.59;;;22.34;48.66
31299;BME280;17927;52.350;13.402;2023-07-13T05:06:55;100983.69;;;22.44;48.58
31299;BME280;17927;52.350;13.402;2023-07-13T05:09:20;100977.50;;;22.56;48.59
31299;BME280;17927;52.350;13.402;2023-07-13T05:11:45;100983.19;;;22.68;48.37
31299;BME280;17927;52.350;13.402;2023-07-13T05:14:10;100975.28;;;22.78;48.59
31299;BME280;17927;52.350;13.402;2023-07-13T05:16:36;100982.03;;;22.89;48.00
31299;BME280;17927;52.350;13.402;2023-07-13T05:19:01;100985.38;;;22.98;48.20
31299;BME280;17927;52.350;13.402;2023-07-13T05:21:27;100994.00;;;23.08;48.02
31299;BME280;17927;52.350;13.402;2023-07-13T05:23:53;100991.63;;;23.18;48.15
31299;BME280;17927;52.350;13.402;2023-07-13T05:26:18;100985.84;;;23.26;47.72
31299;BME280;17927;52.350;13.402;2023-07-13T05:28:44;100992.13;;;23.40;47.69
31299;BME280;17927;52.350;13.402;2023-07-13T05:31:10;100988.88;;;23.50;47.92
31299;BME280;17927;52.350;13.402;2023-07-13T05:33:35;100995.56;;;23.61;47.58
31299;BME280;17927;52.350;13.402;2023-07-13T05:36:00;101000.81;;;23.69;47.29
31299;BME280;17927;52.350;13.402;2023-07-13T05:38:26;100997.78;;;23.78;47.36
31299;BME280;17927;52.350;13.402;2023-07-13T05:40:53;101008.53;;;23.86;47.13
31299;BME280;17927;52.350;13.402;2023-07-13T05:43:19;100999.97;;;23.94;46.87
31299;BME280;17927;52.350;13.402;2023-07-13T05:45:44;101004.38;;;24.02;46.82
31299;BME280;17927;52.350;13.402;2023-07-13T05:48:10;101006.00;;;24.10;46.65
31299;BME280;17927;52.350;13.402;2023-07-13T05:50:35;101003.78;;;24.18;46.61
31299;BME280;17927;52.350;13.402;2023-07-13T05:53:00;100990.53;;;24.27;46.75
31299;BME280;17927;52.350;13.402;2023-07-13T05:55:25;100987.00;;;24.39;46.68
31299;BME280;17927;52.350;13.402;2023-07-13T05:57:51;100989.22;;;24.48;46.59
31299;BME280;17927;52.350;13.402;2023-07-13T06:00:16;100990.63;;;24.58;46.61
31299;BME280;17927;52.350;13.402;2023-07-13T06:02:42;100992.59;;;24.69;46.57
31299;BME280;17927;52.350;13.402;2023-07-13T06:05:07;100982.94;;;24.78;46.20
31299;BME280;17927;52.350;13.402;2023-07-13T06:07:33;100989.00;;;24.87;45.60
31299;BME280;17927;52.350;13.402;2023-07-13T06:09:58;100992.28;;;24.96;45.90
31299;BME280;17927;52.350;13.402;2023-07-13T06:12:24;100991.47;;;25.07;45.80
31299;BME280;17927;52.350;13.402;2023-07-13T06:14:49;100989.84;;;25.18;45.64
31299;BME280;17927;52.350;13.402;2023-07-13T06:17:15;100996.75;;;25.28;45.42
31299;BME280;17927;52.350;13.402;2023-07-13T06:19:40;100994.50;;;25.36;45.36
31299;BME280;17927;52.350;13.402;2023-07-13T06:22:05;100992.25;;;25.45;45.12
31299;BME280;17927;52.350;13.402;2023-07-13T06:24:30;100996.97;;;25.57;45.29
31299;BME280;17927;52.350;13.402;2023-07-13T06:26:56;100997.00;;;25.68;44.65
31299;BME280;17927;52.350;13.402;2023-07-13T06:29:21;100988.06;;;25.78;44.86
31299;BME280;17927;52.350;13.402;2023-07-13T06:31:46;100982.19;;;25.87;44.61
31299;BME280;17927;52.350;13.402;2023-07-13T06:34:12;100989.91;;;25.96;44.39
31299;BME280;17927;52.350;13.402;2023-07-13T06:36:37;100992.06;;;26.06;43.76
31299;BME280;17927;52.350;13.402;2023-07-13T06:39:03;100991.97;;;26.13;43.52
31299;BME280;17927;52.350;13.402;2023-07-13T06:41:28;100986.31;;;26.20;43.73
31299;BME280;17927;52.350;13.402;2023-07-13T06:43:55;100988.09;;;26.26;43.17
31299;BME280;17927;52.350;13.402;2023-07-13T06:46:21;100995.78;;;26.36;42.95
31299;BME280;17927;52.350;13.402;2023-07-13T06:48:47;101006.75;;;26.42;42.89
31299;BME280;17927;52.350;13.402;2023-07-13T06:51:12;101001.31;;;26.48;42.82
31299;BME280;17927;52.350;13.402;2023-07-13T06:53:37;101000.34;;;26.54;42.38
31299;BME280;17927;52.350;13.402;2023-07-13T06:56:03;100999.38;;;26.60;42.54
31299;BME280;17927;52.350;13.402;2023-07-13T06:58:28;100997.91;;;26.69;42.29
31299;BME280;17927;52.350;13.402;2023-07-13T07:00:53;101001.38;;;26.77;41.98
31299;BME280;17927;52.350;13.402;2023-07-13T07:03:19;100994.88;;;26.83;42.08
31299;BME280;17927;52.350;13.402;2023-07-13T07:05:44;100994.75;;;26.89;41.75
31299;BME280;17927;52.350;13.402;2023-07-13T07:08:09;101000.72;;;26.98;41.92
31299;BME280;17927;52.350;13.402;2023-07-13T07:10:35;101000.56;;;27.05;41.74
31299;BME280;17927;52.350;13.402;2023-07-13T07:13:00;100995.97;;;27.11;41.67
31299;BME280;17927;52.350;13.402;2023-07-13T07:15:26;100998.00;;;27.15;41.40
31299;BME280;17927;52.350;13.402;2023-07-13T07:17:52;101000.59;;;27.22;40.85
31299;BME280;17927;52.350;13.402;2023-07-13T07:20:17;100997.69;;;27.29;40.74
31299;BME280;17927;52.350;13.402;2023-07-13T07:22:42;100997.53;;;27.35;40.57
31299;BME280;17927;52.350;13.402;2023-07-13T07:25:08;100991.25;;;27.40;40.30
31299;BME280;17927;52.350;13.402;2023-07-13T07:27:33;101000.53;;;27.46;40.27
31299;BME280;17927;52.350;13.402;2023-07-13T07:29:59;101001.19;;;27.53;39.96
31299;BME280;17927;52.350;13.402;2023-07-13T07:32:24;100997.66;;;27.58;39.84
31299;BME280;17927;52.350;13.402;2023-07-13T07:34:49;101001.38;;;27.63;40.00
31299;BME280;17927;52.350;13.402;2023-07-13T07:37:15;101007.31;;;27.72;39.94
31299;BME280;17927;52.350;13.402;2023-07-13T07:39:40;101006.31;;;27.78;39.77
31299;BME280;17927;52.350;13.402;2023-07-13T07:42:06;101008.94;;;27.85;39.69
31299;BME280;17927;52.350;13.402;2023-07-13T07:44:32;101013.47;;;27.91;39.34
31299;BME280;17927;52.350;13.402;2023-07-13T07:46:57;101006.56;;;27.94;38.95
31299;BME280;17927;52.350;13.402;2023-07-13T07:49:23;101016.41;;;28.02;39.18
31299;BME280;17927;52.350;13.402;2023-07-13T07:51:48;101016.22;;;28.08;39.37
31299;BME280;17927;52.350;13.402;2023-07-13T07:54:13;101016.94;;;28.16;39.20
31299;BME280;17927;52.350;13.402;2023-07-13T07:56:39;101010.34;;;28.22;38.98
31299;BME280;17927;52.350;13.402;2023-07-13T07:59:05;101003.78;;;28.28;38.62
31299;BME280;17927;52.350;13.402;2023-07-13T08:01:30;101011.34;;;28.33;38.58
31299;BME280;17927;52.350;13.402;2023-07-13T08:03:55;101015.59;;;28.40;38.42
31299;BME280;17927;52.350;13.402;2023-07-13T08:06:21;101020.75;;;28.49;38.14
31299;BME280;17927;52.350;13.402;2023-07-13T08:08:47;101013.94;;;28.62;38.33
31299;BME280;17927;52.350;13.402;2023-07-13T08:11:12;101017.44;;;28.74;38.15
31299;BME280;17927;52.350;13.402;2023-07-13T08:13:37;101010.09;;;28.85;37.88
31299;BME280;17927;52.350;13.402;2023-07-13T08:16:06;101006.84;;;28.93;37.45
31299;BME280;17927;52.350;13.402;2023-07-13T08:18:31;101013.03;;;29.00;37.02
31299;BME280;17927;52.350;13.402;2023-07-13T08:20:57;101015.31;;;29.04;36.97
31299;BME280;17927;52.350;13.402;2023-07-13T08:23:24;101010.06;;;29.07;36.55
31299;BME280;17927;52.350;13.402;2023-07-13T08:25:53;101009.22;;;29.07;36.50
31299;BME280;17927;52.350;13.402;2023-07-13T08:28:22;101013.41;;;29.09;36.08
31299;BME280;17927;52.350;13.402;2023-07-13T08:30:47;101014.31;;;29.15;35.99
31299;BME280;17927;52.350;13.402;2023-07-13T08:33:17;101010.75;;;29.20;35.61
31299;BME280;17927;52.350;13.402;2023-07-13T08:35:45;101023.03;;;29.24;35.14
31299;BME280;17927;52.350;13.402;2023-07-13T08:38:11;101023.53;;;29.21;34.88
31299;BME280;17927;52.350;13.402;2023-07-13T08:40:37;101014.06;;;29.16;35.42
31299;BME280;17927;52.350;13.402;2023-07-13T08:43:03;101017.09;;;29.15;35.77
31299;BME280;17927;52.350;13.402;2023-07-13T08:48:27;101022.97;;;29.19;35.75
31299;BME280;17927;52.350;13.402;2023-07-13T08:51:07;101030.78;;;29.22;35.85
31299;BME280;17927;52.350;13.402;2023-07-13T08:53:38;101020.50;;;29.22;35.87
31299;BME280;17927;52.350;13.402;2023-07-13T08:56:11;101013.00;;;29.23;35.92
31299;BME280;17927;52.350;13.402;2023-07-13T08:58:41;101018.63;;;29.28;35.46
31299;BME280;17927;52.350;13.402;2023-07-13T09:01:20;101023.66;;;29.31;35.81
31299;BME280;17927;52.350;13.402;2023-07-13T09:04:05;101027.63;;;29.35;35.46
31299;BME280;17927;52.350;13.402;2023-07-13T09:06:55;101033.50;;;29.39;35.17
31299;BME280;17927;52.350;13.402;2023-07-13T09:14:47;101017.06;;;29.37;34.31
31299;BME280;17927;52.350;13.402;2023-07-13T09:17:37;101029.47;;;29.29;34.04
31299;BME280;17927;52.350;13.402;2023-07-13T09:22:46;101028.56;;;29.19;34.27
31299;BME280;17927;52.350;13.402;2023-07-13T09:25:29;101024.47;;;29.26;34.42
31299;BME280;17927;52.350;13.402;2023-07-13T09:27:58;101025.88;;;29.29;34.08
31299;BME280;17927;52.350;13.402;2023-07-13T09:30:46;101021.13;;;29.29;34.24
31299;BME280;17927;52.350;13.402;2023-07-13T09:33:16;101025.81;;;29.24;34.25
31299;BME280;17927;52.350;13.402;2023-07-13T09:35:42;101037.44;;;29.21;34.52
31299;BME280;17927;52.350;13.402;2023-07-13T09:38:11;101032.44;;;29.17;33.67
31299;BME280;17927;52.350;13.402;2023-07-13T09:41:13;101037.94;;;29.12;33.85
31299;BME280;17927;52.350;13.402;2023-07-13T09:44:13;101036.75;;;29.08;34.28
31299;BME280;17927;52.350;13.402;2023-07-13T09:46:47;101038.13;;;29.06;34.19
31299;BME280;17927;52.350;13.402;2023-07-13T09:49:17;101040.63;;;29.07;33.75
31299;BME280;17927;52.350;13.402;2023-07-13T09:51:43;101038.44;;;29.09;33.70
31299;BME280;17927;52.350;13.402;2023-07-13T09:54:24;101040.69;;;29.12;33.37
31299;BME280;17927;52.350;13.402;2023-07-13T09:56:57;101042.66;;;29.12;33.32
31299;BME280;17927;52.350;13.402;2023-07-13T09:59:27;101040.97;;;29.11;33.40
31299;BME280;17927;52.350;13.402;2023-07-13T10:01:53;101039.28;;;29.10;33.69
31299;BME280;17927;52.350;13.402;2023-07-13T10:04:27;101032.75;;;29.21;33.73
31299;BME280;17927;52.350;13.402;2023-07-13T10:07:05;101032.34;;;29.35;33.28
31299;BME280;17927;52.350;13.402;2023-07-13T10:09:31;101033.53;;;29.44;33.98
31299;BME280;17927;52.350;13.402;2023-07-13T10:11:57;101037.59;;;29.58;33.56
31299;BME280;17927;52.350;13.402;2023-07-13T10:14:22;101035.72;;;29.69;32.97
31299;BME280;17927;52.350;13.402;2023-07-13T10:16:51;101038.84;;;29.78;32.52
31299;BME280;17927;52.350;13.402;2023-07-13T10:19:26;101043.06;;;29.81;32.50
31299;BME280;17927;52.350;13.402;2023-07-13T10:22:00;101045.53;;;29.77;32.06
31299;BME280;17927;52.350;13.402;2023-07-13T10:24:27;101037.72;;;29.74;31.84
31299;BME280;17927;52.350;13.402;2023-07-13T10:27:04;101041.56;;;29.68;32.00
31299;BME280;17927;52.350;13.402;2023-07-13T10:29:37;101049.56;;;29.59;32.46
31299;BME280;17927;52.350;13.402;2023-07-13T10:32:09;101047.94;;;29.63;32.57
31299;BME280;17927;52.350;13.402;2023-07-13T10:34:36;101045.16;;;29.68;32.30
31299;BME280;17927;52.350;13.402;2023-07-13T10:37:01;101042.44;;;29.73;31.99
31299;BME280;17927;52.350;13.402;2023-07-13T10:39:28;101056.06;;;29.75;31.79
31299;BME280;17927;52.350;13.402;2023-07-13T10:41:57;101049.41;;;29.76;31.62
31299;BME280;17927;52.350;13.402;2023-07-13T10:44:26;101050.25;;;29.76;31.58
31299;BME280;17927;52.350;13.402;2023-07-13T10:47:00;101055.03;;;29.81;31.87
31299;BME280;17927;52.350;13.402;2023-07-13T10:49:27;101050.91;;;29.89;31.71
31299;BME280;17927;52.350;13.402;2023-07-13T10:51:53;101048.44;;;29.92;30.93
31299;BME280;17927;52.350;13.402;2023-07-13T10:54:41;101041.19;;;29.91;30.84
31299;BME280;17927;52.350;13.402;2023-07-13T10:57:15;101034.75;;;29.86;30.45
31299;BME280;17927;52.350;13.402;2023-07-13T10:59:43;101042.78;;;29.82;30.11
31299;BME280;17927;52.350;13.402;2023-07-13T11:02:20;101047.19;;;29.78;30.31
31299;BME280;17927;52.350;13.402;2023-07-13T11:04:48;101048.88;;;29.74;31.15
31299;BME280;17927;52.350;13.402;2023-07-13T11:07:20;101038.03;;;29.77;30.88
31299;BME280;17927;52.350;13.402;2023-07-13T11:09:50;101040.28;;;29.81;31.06
31299;BME280;17927;52.350;13.402;2023-07-13T11:15:06;101040.84;;;29.83;30.38
31299;BME280;17927;52.350;13.402;2023-07-13T11:17:36;101039.19;;;29.82;30.73
31299;BME280;17927;52.350;13.402;2023-07-13T11:25:32;101034.34;;;30.04;30.69
31299;BME280;17927;52.350;13.402;2023-07-13T11:30:42;101024.72;;;30.17;30.33
31299;BME280;17927;52.350;13.402;2023-07-13T11:33:22;101015.25;;;30.23;30.96
31299;BME280;17927;52.350;13.402;2023-07-13T11:35:53;101025.63;;;30.33;31.34
31299;BME280;17927;52.350;13.402;2023-07-13T11:38:37;101024.03;;;30.48;30.95
31299;BME280;17927;52.350;13.402;2023-07-13T11:41:24;101021.28;;;30.53;30.21
31299;BME280;17927;52.350;13.402;2023-07-13T11:44:05;101021.34;;;30.58;30.41
31299;BME280;17927;52.350;13.402;2023-07-13T11:46:31;101028.59;;;30.64;29.87
31299;BME280;17927;52.350;13.402;2023-07-13T11:48:56;101019.72;;;30.73;29.03
31299;BME280;17927;52.350;13.402;2023-07-13T11:51:27;101020.28;;;30.80;28.56
31299;BME280;17927;52.350;13.402;2023-07-13T11:53:54;101022.53;;;30.83;28.75
31299;BME280;17927;52.350;13.402;2023-07-13T11:56:20;101015.88;;;30.84;29.32
31299;BME280;17927;52.350;13.402;2023-07-13T11:58:54;101018.69;;;30.89;28.85
31299;BME280;17927;52.350;13.402;2023-07-13T12:01:22;101018.38;;;30.91;28.42
31299;BME280;17927;52.350;13.402;2023-07-13T12:03:49;101010.84;;;30.91;28.69
31299;BME280;17927;52.350;13.402;2023-07-13T12:08:59;101007.50;;;30.84;28.40
31299;BME280;17927;52.350;13.402;2023-07-13T12:11:26;101004.69;;;30.79;28.34
31299;BME280;17927;52.350;13.402;2023-07-13T12:13:52;101007.47;;;30.79;28.46
31299;BME280;17927;52.350;13.402;2023-07-13T12:16:25;101001.63;;;30.86;28.88
31299;BME280;17927;52.350;13.402;2023-07-13T12:18:52;100996.66;;;30.98;29.08
31299;BME280;17927;52.350;13.402;2023-07-13T12:21:19;101002.53;;;31.12;28.36
31299;BME280;17927;52.350;13.402;2023-07-13T12:23:47;101004.28;;;31.18;27.84
31299;BME280;17927;52.350;13.402;2023-07-13T12:26:15;101008.47;;;31.26;28.59
31299;BME280;17927;52.350;13.402;2023-07-13T12:28:54;100998.16;;;31.32;27.99
31299;BME280;17927;52.350;13.402;2023-07-13T12:31:29;100997.59;;;31.29;27.52
31299;BME280;17927;52.350;13.402;2023-07-13T12:34:09;101003.44;;;31.28;27.47
31299;BME280;17927;52.350;13.402;2023-07-13T12:36:40;101001.19;;;31.30;27.48
31299;BME280;17927;52.350;13.402;2023-07-13T12:39:16;101005.13;;;31.39;27.36
31299;BME280;17927;52.350;13.402;2023-07-13T12:41:42;100992.59;;;31.52;27.81
31299;BME280;17927;52.350;13.402;2023-07-13T12:44:12;100997.63;;;31.71;27.51
31299;BME280;17927;52.350;13.402;2023-07-13T12:46:38;101011.56;;;31.92;27.79
31299;BME280;17927;52.350;13.402;2023-07-13T12:49:06;101009.00;;;32.26;28.55
31299;BME280;17927;52.350;13.402;2023-07-13T12:51:32;101001.56;;;32.72;27.84
31299;BME280;17927;52.350;13.402;2023-07-13T12:54:07;101004.09;;;33.29;26.83
31299;BME280;17927;52.350;13.402;2023-07-13T12:56:37;101010.88;;;33.57;27.85
31299;BME280;17927;52.350;13.402;2023-07-13T12:59:04;101004.81;;;34.09;27.66
31299;BME280;17927;52.350;13.402;2023-07-13T13:01:34;101006.97;;;34.66;26.44
31299;BME280;17927;52.350;13.402;2023-07-13T13:04:03;101005.69;;;35.20;25.37
31299;BME280;17927;52.350;13.402;2023-07-13T13:06:34;101003.47;;;35.56;25.14
31299;BME280;17927;52.350;13.402;2023-07-13T13:09:01;101004.91;;;35.86;24.51
31299;BME280;17927;52.350;13.402;2023-07-13T13:11:30;100998.72;;;36.17;24.20
31299;BME280;17927;52.350;13.402;2023-07-13T13:13:55;101002.91;;;36.34;23.48